Time;durP1;ratioP1;P1;durP2;ratioP2;P2;SDS_P1;SDS_P2;PMS_P1;PMS_P2;Temp;Humidity;BMP_temperature;BMP_pressure;BME280_temperature;BME280_humidity;BME280_pressure;Samples;Min_cycle;Max_cycle;Signal;HPM_P1;HPM_P2
2023/02/09 00:01:19;;;;;;;18.97;11.30;;;3.00;67.60;;;;;;5053428;28;20458;-57
2023/02/09 00:03:45;;;;;;;14.10;9.63;;;2.90;67.50;;;;;;5053458;28;20448;-58
2023/02/09 00:06:15;;;;;;;15.40;10.40;;;2.90;67.30;;;;;;5053090;28;20994;-57
2023/02/09 00:08:42;;;;;;;18.13;10.97;;;2.90;67.60;;;;;;5053545;28;20468;-58
2023/02/09 00:11:10;;;;;;;17.30;10.13;;;2.90;68.30;;;;;;5053746;28;20449;-58
2023/02/09 00:13:37;;;;;;;18.53;11.47;;;2.90;68.00;;;;;;5053255;28;20527;-57
2023/02/09 00:16:04;;;;;;;17.60;10.50;;;2.90;68.40;;;;;;5053363;28;20507;-58
2023/02/09 00:18:33;;;;;;;13.10;10.00;;;2.90;68.40;;;;;;5053332;28;20457;-57
2023/02/09 00:21:01;;;;;;;14.90;9.60;;;2.90;68.20;;;;;;5053594;28;20434;-57
2023/02/09 00:23:30;;;;;;;15.60;10.43;;;2.90;68.20;;;;;;5053061;28;20453;-57
2023/02/09 00:25:59;;;;;;;17.63;11.20;;;2.90;68.20;;;;;;5053259;28;20472;-58
2023/02/09 00:28:26;;;;;;;16.50;10.30;;;2.90;68.20;;;;;;5052899;28;20976;-57
2023/02/09 00:30:54;;;;;;;13.57;10.27;;;3.00;68.50;;;;;;5052817;28;20464;-57
2023/02/09 00:33:21;;;;;;;16.67;10.30;;;2.90;68.00;;;;;;5053349;28;20493;-56
2023/02/09 00:35:48;;;;;;;16.60;10.83;;;3.00;68.00;;;;;;5053044;28;20477;-56
2023/02/09 00:38:15;;;;;;;17.60;10.87;;;3.00;68.10;;;;;;5053182;28;20429;-57
2023/02/09 00:40:42;;;;;;;16.10;10.40;;;3.00;68.20;;;;;;5053676;28;20449;-57
2023/02/09 00:43:10;;;;;;;17.90;10.30;;;3.00;68.00;;;;;;5053152;28;20438;-57
2023/02/09 00:45:37;;;;;;;16.20;10.70;;;3.00;68.10;;;;;;5053045;28;20487;-57
2023/02/09 00:48:06;;;;;;;15.53;10.03;;;3.00;68.30;;;;;;5052847;28;20453;-57
2023/02/09 00:50:32;;;;;;;13.07;9.97;;;3.00;68.20;;;;;;5053263;28;20456;-57
2023/02/09 00:52:59;;;;;;;16.17;10.40;;;3.00;68.20;;;;;;5052784;28;20450;-57
2023/02/09 00:55:26;;;;;;;14.50;9.50;;;3.00;68.00;;;;;;5052981;28;20477;-57
2023/02/09 00:57:53;;;;;;;12.70;8.73;;;3.00;68.00;;;;;;5053006;28;20446;-57
2023/02/09 01:00:20;;;;;;;17.13;10.57;;;3.00;67.90;;;;;;5052993;28;20465;-57
2023/02/09 01:02:47;;;;;;;12.67;9.57;;;2.90;67.70;;;;;;5053137;28;20487;-57
2023/02/09 01:05:15;;;;;;;14.57;10.03;;;2.90;67.60;;;;;;5056340;28;20482;-56
2023/02/09 01:07:42;;;;;;;14.40;10.10;;;2.90;67.50;;;;;;5056326;28;20975;-57
2023/02/09 01:10:10;;;;;;;15.70;10.10;;;2.90;67.10;;;;;;5056729;28;20431;-57
2023/02/09 01:12:39;;;;;;;16.10;10.03;;;2.80;67.20;;;;;;5056652;28;20453;-57
2023/02/09 01:15:07;;;;;;;13.77;9.50;;;2.80;67.40;;;;;;5056070;28;20539;-56
2023/02/09 01:17:34;;;;;;;19.00;10.60;;;2.80;67.10;;;;;;5056561;28;20445;-57
2023/02/09 01:20:01;;;;;;;15.20;9.67;;;2.80;66.90;;;;;;5056401;28;20939;-57
2023/02/09 01:22:30;;;;;;;15.80;10.67;;;2.70;66.70;;;;;;5056856;28;20445;-57
2023/02/09 01:24:56;;;;;;;17.47;10.50;;;2.70;66.80;;;;;;5056634;28;20462;-57
2023/02/09 01:27:23;;;;;;;12.70;9.90;;;2.60;66.50;;;;;;5057508;28;20480;-57
2023/02/09 01:29:50;;;;;;;16.77;11.27;;;2.50;66.80;;;;;;5057273;28;20433;-56
2023/02/09 01:32:16;;;;;;;13.20;10.33;;;2.50;67.90;;;;;;5056350;28;20449;-56
2023/02/09 01:34:43;;;;;;;13.27;9.57;;;2.40;68.10;;;;;;5056266;28;20516;-57
2023/02/09 01:37:10;;;;;;;14.80;9.93;;;2.40;68.50;;;;;;5056328;28;20510;-57
2023/02/09 01:39:38;;;;;;;12.30;9.23;;;2.30;68.80;;;;;;5056676;28;20844;-57
2023/02/09 01:42:04;;;;;;;13.57;9.70;;;2.30;69.00;;;;;;5056331;28;20584;-56
2023/02/09 01:45:05;;;;;;;16.40;9.70;;;2.30;69.60;;;;;;5056589;28;20461;-57
2023/02/09 01:47:36;;;;;;;16.10;9.27;;;2.20;69.80;;;;;;5057538;28;20457;-57
2023/02/09 01:50:03;;;;;;;12.83;8.97;;;2.20;70.00;;;;;;5057194;28;20415;-57
2023/02/09 01:52:30;;;;;;;16.97;9.70;;;2.20;70.20;;;;;;5056692;28;20930;-57
2023/02/09 01:55:01;;;;;;;13.40;8.90;;;2.20;70.80;;;;;;5055652;28;20481;-56
2023/02/09 01:57:32;;;;;;;13.33;9.53;;;2.10;71.10;;;;;;5055663;28;20434;-56
2023/02/09 02:00:05;;;;;;;20.53;9.90;;;2.10;71.50;;;;;;5055201;28;20823;-57
2023/02/09 02:02:32;;;;;;;16.70;10.63;;;2.10;71.90;;;;;;5055681;28;20433;-56
2023/02/09 02:04:59;;;;;;;17.07;11.10;;;2.10;72.00;;;;;;5055643;28;20468;-56
2023/02/09 02:07:30;;;;;;;17.93;10.50;;;2.10;72.20;;;;;;5055598;28;20442;-56
2023/02/09 02:09:59;;;;;;;12.60;9.50;;;2.10;72.30;;;;;;5055383;28;20441;-56
2023/02/09 02:12:26;;;;;;;13.27;8.53;;;2.00;72.20;;;;;;5055078;28;20977;-56
2023/02/09 02:14:53;;;;;;;13.93;9.60;;;1.90;72.00;;;;;;5054769;28;20489;-56
2023/02/09 02:17:30;;;;;;;13.07;9.83;;;1.90;72.40;;;;;;5055326;28;20457;-57
2023/02/09 02:20:20;;;;;;;13.77;8.17;;;1.80;72.40;;;;;;5055537;28;20441;-57
2023/02/09 02:23:01;;;;;;;13.67;8.90;;;1.70;72.50;;;;;;5055165;28;20483;-56
2023/02/09 02:26:13;;;;;;;12.97;8.50;;;1.70;72.80;;;;;;5054811;28;20462;-57
2023/02/09 02:28:45;;;;;;;11.90;9.43;;;1.70;73.50;;;;;;5032878;28;20469;-57
2023/02/09 02:31:52;;;;;;;15.57;9.77;;;1.70;74.10;;;;;;5032731;28;20431;-57
2023/02/09 02:34:24;;;;;;;18.50;9.80;;;1.70;74.20;;;;;;5049305;28;20489;-57
2023/02/09 02:37:00;;;;;;;13.30;9.97;;;1.70;74.40;;;;;;5054988;28;20438;-57
2023/02/09 02:39:33;;;;;;;13.83;8.77;;;1.60;74.20;;;;;;5054850;28;20433;-56
2023/02/09 02:45:01;;;;;;;11.50;8.60;;;1.60;73.90;;;;;;5054660;28;20450;-57
2023/02/09 02:47:32;;;;;;;14.37;9.17;;;1.50;73.70;;;;;;5054473;28;20941;-56
2023/02/09 02:50:07;;;;;;;12.37;9.67;;;1.40;73.70;;;;;;5054661;28;20437;-57
2023/02/09 02:52:34;;;;;;;14.63;8.77;;;1.40;74.40;;;;;;5054547;28;20422;-56
2023/02/09 02:55:06;;;;;;;13.57;9.40;;;1.40;74.90;;;;;;5054725;28;20499;-56
2023/02/09 02:57:36;;;;;;;12.23;9.30;;;1.40;75.60;;;;;;5054725;28;20445;-57
2023/02/09 03:00:09;;;;;;;13.20;8.83;;;1.40;76.00;;;;;;5054588;28;20433;-57
2023/02/09 03:02:40;;;;;;;12.97;9.47;;;1.40;76.10;;;;;;5054644;28;20437;-57
2023/02/09 03:05:08;;;;;;;15.57;10.13;;;1.40;76.40;;;;;;5054013;28;20994;-57
2023/02/09 03:07:35;;;;;;;14.67;10.00;;;1.40;76.60;;;;;;5054073;28;20814;-57
2023/02/09 03:10:01;;;;;;;15.80;10.27;;;1.40;76.70;;;;;;5054248;28;20434;-57
2023/02/09 03:12:41;;;;;;;11.70;9.30;;;1.30;76.40;;;;;;5054197;28;20458;-57
2023/02/09 03:15:18;;;;;;;15.27;8.90;;;1.30;76.40;;;;;;5054017;28;20489;-56
2023/02/09 03:17:53;;;;;;;18.93;10.23;;;1.30;76.70;;;;;;5054270;28;20471;-57
2023/02/09 03:20:27;;;;;;;13.90;9.27;;;1.30;77.00;;;;;;5054133;28;20441;-57
2023/02/09 03:22:57;;;;;;;18.10;9.40;;;1.30;77.10;;;;;;5054009;28;20440;-56
2023/02/09 03:25:30;;;;;;;14.37;10.47;;;1.20;77.00;;;;;;5054049;28;20473;-56
2023/02/09 03:28:02;;;;;;;14.43;10.03;;;1.20;77.10;;;;;;5053815;28;20429;-56
2023/02/09 03:30:31;;;;;;;13.67;8.77;;;1.20;77.90;;;;;;5053906;28;20426;-57
2023/02/09 03:32:59;;;;;;;12.50;8.30;;;1.20;77.40;;;;;;5053816;28;20445;-56
2023/02/09 03:35:33;;;;;;;14.70;9.30;;;1.20;77.90;;;;;;5053639;28;20493;-56
2023/02/09 03:38:01;;;;;;;16.30;9.13;;;1.20;78.40;;;;;;5053753;28;20540;-57
2023/02/09 03:40:28;;;;;;;18.37;9.73;;;1.20;78.40;;;;;;5053695;28;20831;-56
2023/02/09 03:42:54;;;;;;;13.23;9.17;;;1.10;78.40;;;;;;5053789;28;20453;-56
2023/02/09 03:45:21;;;;;;;16.13;9.50;;;1.10;78.50;;;;;;5053188;28;20848;-56
2023/02/09 03:47:48;;;;;;;15.57;10.20;;;1.10;78.80;;;;;;5053403;28;20458;-56
2023/02/09 03:50:16;;;;;;;14.27;8.67;;;1.10;79.00;;;;;;5053661;28;20454;-56
2023/02/09 03:52:43;;;;;;;17.33;10.20;;;1.10;78.90;;;;;;5053497;28;20456;-56
2023/02/09 03:55:09;;;;;;;11.77;8.73;;;1.00;78.80;;;;;;5053437;28;20485;-56
2023/02/09 03:57:38;;;;;;;14.33;9.53;;;1.00;79.00;;;;;;5053578;28;20442;-56
2023/02/09 04:00:05;;;;;;;13.47;8.90;;;1.00;79.40;;;;;;5053462;28;20966;-56
2023/02/09 04:02:32;;;;;;;16.23;10.27;;;1.00;80.10;;;;;;5053456;28;20453;-56
2023/02/09 04:04:59;;;;;;;15.80;8.83;;;0.90;79.70;;;;;;5053367;28;20484;-56
2023/02/09 04:07:27;;;;;;;15.40;9.77;;;0.90;79.80;;;;;;5053630;28;20449;-56
2023/02/09 04:09:53;;;;;;;16.50;9.90;;;0.90;80.20;;;;;;5053219;28;20942;-56
2023/02/09 04:12:20;;;;;;;14.80;10.13;;;0.90;80.10;;;;;;5053300;28;20472;-56
2023/02/09 04:14:47;;;;;;;13.83;9.80;;;0.90;80.10;;;;;;5053143;28;20493;-56
2023/02/09 04:17:13;;;;;;;17.53;10.07;;;0.90;80.50;;;;;;5053305;28;20447;-56
2023/02/09 04:19:40;;;;;;;15.20;9.63;;;0.90;80.50;;;;;;5053072;28;20448;-56
2023/02/09 04:22:07;;;;;;;14.03;9.70;;;0.90;81.00;;;;;;5053215;28;20458;-57
2023/02/09 04:24:36;;;;;;;13.27;9.10;;;1.00;81.00;;;;;;5052784;28;20908;-57
2023/02/09 04:27:02;;;;;;;14.77;9.80;;;1.00;81.10;;;;;;5053244;28;20453;-57
2023/02/09 04:29:29;;;;;;;19.17;11.13;;;1.00;81.20;;;;;;5053233;28;20430;-57
2023/02/09 04:31:56;;;;;;;14.47;10.67;;;1.00;81.40;;;;;;5053138;28;20445;-57
2023/02/09 04:34:23;;;;;;;14.50;10.27;;;1.00;81.20;;;;;;5053082;28;20485;-55
2023/02/09 04:36:50;;;;;;;15.27;9.20;;;1.00;81.10;;;;;;5052840;28;20441;-56
2023/02/09 04:39:17;;;;;;;16.30;11.67;;;1.10;80.70;;;;;;5056921;28;20453;-57
2023/02/09 04:41:45;;;;;;;15.70;10.17;;;1.10;80.50;;;;;;5057207;28;20465;-57
2023/02/09 04:44:12;;;;;;;16.30;9.27;;;1.10;80.30;;;;;;5056874;28;20466;-57
2023/02/09 04:46:39;;;;;;;17.17;11.20;;;1.10;80.50;;;;;;5056903;28;20449;-57
2023/02/09 04:49:06;;;;;;;16.17;10.57;;;1.10;80.30;;;;;;5057138;28;20422;-57
2023/02/09 04:51:32;;;;;;;15.73;11.47;;;1.10;80.30;;;;;;5057001;28;20445;-55
2023/02/09 04:53:59;;;;;;;17.00;11.30;;;1.10;80.30;;;;;;5056472;28;20984;-56
2023/02/09 04:56:26;;;;;;;15.47;11.23;;;1.10;80.50;;;;;;5057014;28;20460;-56
2023/02/09 05:01:50;;;;;;;14.80;9.93;;;1.20;80.40;;;;;;5034486;28;20501;-57
2023/02/09 05:04:17;;;;;;;17.57;12.37;;;1.20;80.20;;;;;;5051118;28;20523;-57
2023/02/09 05:06:44;;;;;;;12.00;9.30;;;1.20;80.90;;;;;;5056800;28;20449;-57
2023/02/09 05:09:11;;;;;;;18.90;10.40;;;1.20;80.10;;;;;;5056769;28;20456;-57
2023/02/09 05:11:37;;;;;;;14.80;10.47;;;1.20;80.10;;;;;;5056740;28;20441;-56
2023/02/09 05:14:05;;;;;;;15.70;10.80;;;1.20;80.00;;;;;;5056282;28;20481;-58
2023/02/09 05:16:32;;;;;;;17.03;11.03;;;1.20;80.00;;;;;;5056725;28;20456;-56
2023/02/09 05:18:59;;;;;;;17.17;10.50;;;1.20;79.80;;;;;;5056527;28;20426;-55
2023/02/09 05:21:26;;;;;;;14.03;10.00;;;1.10;79.70;;;;;;5056489;28;20449;-56
2023/02/09 05:23:52;;;;;;;26.47;11.80;;;1.10;79.70;;;;;;5056639;28;20480;-56
2023/02/09 05:26:19;;;;;;;13.50;9.83;;;1.10;80.10;;;;;;5056320;28;20442;-57
2023/02/09 05:28:46;;;;;;;18.67;11.03;;;1.10;80.30;;;;;;5056521;28;20449;-56
2023/02/09 05:31:14;;;;;;;14.50;10.60;;;1.10;80.70;;;;;;5056563;28;20429;-56
2023/02/09 05:33:41;;;;;;;17.80;10.80;;;1.00;80.60;;;;;;5056583;28;20445;-56
2023/02/09 05:36:11;;;;;;;17.27;11.97;;;1.00;80.50;;;;;;5056370;28;20473;-56
2023/02/09 05:38:38;;;;;;;18.93;11.10;;;1.00;80.60;;;;;;5056498;28;20835;-56
2023/02/09 05:41:05;;;;;;;15.70;10.20;;;1.00;80.60;;;;;;5057327;28;20460;-56
2023/02/09 05:43:32;;;;;;;16.20;10.80;;;0.90;80.50;;;;;;5056520;28;20824;-56
2023/02/09 05:45:59;;;;;;;15.43;10.20;;;0.90;80.70;;;;;;5057331;28;20445;-57
2023/02/09 05:48:27;;;;;;;16.03;10.50;;;0.90;80.90;;;;;;5056941;28;20465;-56
2023/02/09 05:50:54;;;;;;;17.93;11.33;;;0.90;81.20;;;;;;5056898;28;20453;-55
2023/02/09 05:53:21;;;;;;;15.67;10.53;;;0.90;81.30;;;;;;5056595;28;20450;-56
2023/02/09 05:55:47;;;;;;;20.60;11.87;;;0.90;81.50;;;;;;5055906;28;20869;-56
2023/02/09 05:58:14;;;;;;;17.33;12.57;;;0.90;81.60;;;;;;5056588;28;20461;-56
2023/02/09 06:00:41;;;;;;;24.10;14.57;;;0.90;81.70;;;;;;5056838;28;20471;-56
2023/02/09 06:03:08;;;;;;;18.20;12.10;;;0.90;81.80;;;;;;5055724;28;20954;-56
2023/02/09 06:05:36;;;;;;;20.97;14.27;;;0.80;81.90;;;;;;5055717;28;20465;-56
2023/02/09 06:08:02;;;;;;;20.33;13.23;;;0.90;82.00;;;;;;5055629;28;20471;-56
2023/02/09 06:10:29;;;;;;;19.73;12.87;;;0.80;82.00;;;;;;5055165;28;20914;-57
2023/02/09 06:12:56;;;;;;;19.80;13.13;;;0.80;82.20;;;;;;5055380;28;20446;-57
2023/02/09 06:15:22;;;;;;;25.20;13.83;;;0.80;82.30;;;;;;5055006;28;20544;-57
2023/02/09 06:17:49;;;;;;;23.10;14.83;;;0.80;82.60;;;;;;5055275;28;20460;-57
2023/02/09 06:20:16;;;;;;;22.60;14.60;;;0.80;82.70;;;;;;5054987;28;20996;-57
2023/02/09 06:22:44;;;;;;;19.07;14.40;;;0.70;82.40;;;;;;5055274;28;20460;-57
2023/02/09 06:25:11;;;;;;;25.57;14.70;;;0.70;82.60;;;;;;5055141;28;20492;-57
2023/02/09 06:27:37;;;;;;;22.77;13.73;;;0.70;82.90;;;;;;5055035;28;20456;-57
2023/02/09 06:30:05;;;;;;;24.97;15.03;;;0.70;83.10;;;;;;5055010;28;20454;-57
2023/02/09 06:32:32;;;;;;;24.83;15.27;;;0.70;83.20;;;;;;5055010;28;20798;-57
2023/02/09 06:34:59;;;;;;;22.07;13.70;;;0.70;83.20;;;;;;5054570;28;20512;-57
2023/02/09 06:37:25;;;;;;;23.60;13.93;;;0.70;83.20;;;;;;5054681;28;20452;-57
2023/02/09 06:39:53;;;;;;;25.20;15.10;;;0.70;83.40;;;;;;5055213;28;20463;-57
2023/02/09 06:42:20;;;;;;;21.53;13.97;;;0.70;83.60;;;;;;5054924;28;20455;-58
2023/02/09 06:44:47;;;;;;;25.37;14.83;;;0.70;83.80;;;;;;5054791;28;20475;-57
2023/02/09 06:47:13;;;;;;;22.43;14.90;;;0.70;83.90;;;;;;5054579;28;20458;-57
2023/02/09 06:49:40;;;;;;;26.83;15.47;;;0.70;84.10;;;;;;5054587;28;20940;-57
2023/02/09 06:52:07;;;;;;;25.43;15.97;;;0.70;84.20;;;;;;5054651;28;20430;-56
2023/02/09 06:54:34;;;;;;;32.23;16.63;;;0.70;84.40;;;;;;5054393;28;21099;-57
2023/02/09 06:57:02;;;;;;;26.27;16.23;;;0.70;84.50;;;;;;5054523;28;20456;-58
2023/02/09 06:59:28;;;;;;;29.80;16.70;;;0.70;84.70;;;;;;5054513;28;20448;-57
2023/02/09 07:01:55;;;;;;;24.30;14.30;;;0.70;85.00;;;;;;5053094;28;20976;-57
2023/02/09 07:04:22;;;;;;;25.43;16.27;;;0.70;84.90;;;;;;5054366;28;20461;-57
2023/02/09 07:06:49;;;;;;;26.73;17.87;;;0.60;84.90;;;;;;5054332;28;20445;-57
2023/02/09 07:09:16;;;;;;;25.77;15.33;;;0.60;85.00;;;;;;5054350;28;20472;-57
2023/02/09 07:11:42;;;;;;;26.10;16.70;;;0.60;85.00;;;;;;5054303;28;20445;-56
2023/02/09 07:14:11;;;;;;;24.63;15.13;;;0.60;85.10;;;;;;5053787;28;20468;-57
2023/02/09 07:16:37;;;;;;;24.73;15.47;;;0.60;85.20;;;;;;5054118;28;20481;-57
2023/02/09 07:19:04;;;;;;;25.60;15.60;;;0.60;85.30;;;;;;5053824;28;20949;-57
2023/02/09 07:21:31;;;;;;;29.83;16.57;;;0.60;85.40;;;;;;5054100;28;20460;-57
2023/02/09 07:23:57;;;;;;;25.23;16.63;;;0.60;86.10;;;;;;5053869;28;20532;-57
2023/02/09 07:26:24;;;;;;;23.13;14.63;;;0.60;86.30;;;;;;5054059;28;20440;-57
2023/02/09 07:28:51;;;;;;;25.87;15.80;;;0.60;86.40;;;;;;5053972;28;20464;-57
2023/02/09 07:31:19;;;;;;;24.10;16.23;;;0.70;86.60;;;;;;5053926;28;20445;-57
2023/02/09 07:33:46;;;;;;;26.67;14.67;;;0.70;86.80;;;;;;5053917;28;20816;-57
2023/02/09 07:36:14;;;;;;;26.03;15.93;;;0.70;86.80;;;;;;5053758;28;20499;-57
2023/02/09 07:38:41;;;;;;;24.13;15.67;;;0.80;86.90;;;;;;5053792;28;20442;-57
2023/02/09 07:41:14;;;;;;;23.50;16.17;;;0.80;87.00;;;;;;5053568;28;20456;-57
2023/02/09 07:43:41;;;;;;;24.83;16.50;;;0.90;87.00;;;;;;5053667;28;20444;-57
2023/02/09 07:46:09;;;;;;;26.00;15.93;;;0.90;86.80;;;;;;5053738;28;20446;-57
2023/02/09 07:48:37;;;;;;;23.40;15.17;;;0.90;86.80;;;;;;5053311;28;20456;-57
2023/02/09 07:51:04;;;;;;;23.00;15.50;;;1.00;86.90;;;;;;5053603;28;20543;-57
2023/02/09 07:53:31;;;;;;;21.13;15.07;;;1.00;87.50;;;;;;5053411;28;20473;-57
2023/02/09 07:55:58;;;;;;;30.63;16.90;;;1.00;86.70;;;;;;5053434;28;20497;-57
2023/02/09 07:58:25;;;;;;;25.10;16.07;;;1.10;86.80;;;;;;5053446;28;20456;-57
2023/02/09 08:00:52;;;;;;;25.73;15.47;;;1.10;87.00;;;;;;5053464;28;20446;-57
2023/02/09 08:03:20;;;;;;;23.60;17.10;;;1.20;87.10;;;;;;5053467;28;20989;-57
2023/02/09 08:05:56;;;;;;;26.90;16.57;;;1.20;87.00;;;;;;5053100;28;20477;-57
2023/02/09 08:08:23;;;;;;;24.97;14.90;;;1.30;87.20;;;;;;5053529;28;20817;-57
2023/02/09 08:10:50;;;;;;;23.33;15.13;;;1.30;87.10;;;;;;5053411;28;20446;-57
2023/02/09 08:13:17;;;;;;;22.43;15.80;;;1.30;87.20;;;;;;5052832;28;20446;-56
2023/02/09 08:15:47;;;;;;;24.10;15.80;;;1.40;87.30;;;;;;5053285;28;20492;-56
2023/02/09 08:18:18;;;;;;;25.87;15.47;;;1.40;87.30;;;;;;5053273;28;20463;-57
2023/02/09 08:20:46;;;;;;;25.17;16.07;;;1.50;87.40;;;;;;5053375;28;20430;-57
2023/02/09 08:23:20;;;;;;;22.90;14.17;;;1.50;87.40;;;;;;5053209;28;20445;-57
2023/02/09 08:25:50;;;;;;;29.50;16.70;;;1.50;87.30;;;;;;5053312;28;20458;-57
2023/02/09 08:28:18;;;;;;;27.73;15.13;;;1.60;87.40;;;;;;5053228;28;20456;-56
2023/02/09 08:30:45;;;;;;;27.60;14.90;;;1.60;87.50;;;;;;5053252;28;20453;-57
2023/02/09 08:33:11;;;;;;;22.70;15.20;;;1.70;87.50;;;;;;5053173;28;20453;-57
2023/02/09 08:35:38;;;;;;;26.93;15.67;;;1.80;87.30;;;;;;5053116;28;20493;-57
2023/02/09 08:38:05;;;;;;;29.17;14.60;;;1.90;87.10;;;;;;5053087;28;20461;-57
2023/02/09 08:40:39;;;;;;;27.23;16.60;;;1.90;86.80;;;;;;5053050;28;20454;-56
2023/02/09 08:43:05;;;;;;;20.20;14.00;;;2.00;86.80;;;;;;5053082;28;20433;-57
2023/02/09 08:45:32;;;;;;;21.40;14.50;;;2.00;86.60;;;;;;5052998;28;20488;-56
2023/02/09 08:47:59;;;;;;;19.40;14.00;;;2.10;86.40;;;;;;5052727;28;20472;-56
2023/02/09 08:50:26;;;;;;;25.80;15.37;;;2.10;86.10;;;;;;5053040;28;20454;-56
2023/02/09 08:52:53;;;;;;;25.47;16.50;;;2.30;86.20;;;;;;5052673;28;20914;-56
2023/02/09 08:55:19;;;;;;;26.30;15.57;;;2.30;85.90;;;;;;5052840;28;20469;-57
2023/02/09 08:57:47;;;;;;;21.40;14.33;;;2.40;85.40;;;;;;5052944;28;20452;-57
2023/02/09 09:00:15;;;;;;;24.90;14.70;;;2.50;85.10;;;;;;5053032;28;20456;-57
2023/02/09 09:02:42;;;;;;;23.17;15.70;;;2.50;84.60;;;;;;5052602;28;20929;-56
2023/02/09 09:05:09;;;;;;;21.00;14.00;;;2.60;84.60;;;;;;5052943;28;20476;-57
2023/02/09 09:07:36;;;;;;;22.80;14.57;;;2.60;83.70;;;;;;5052964;28;20801;-57
2023/02/09 09:10:03;;;;;;;22.53;12.50;;;2.70;83.30;;;;;;5052471;28;20959;-57
2023/02/09 09:12:30;;;;;;;19.30;12.40;;;2.70;82.10;;;;;;5052742;28;20453;-57
2023/02/09 09:14:58;;;;;;;19.90;12.20;;;2.80;80.50;;;;;;5052683;28;20485;-57
2023/02/09 09:17:25;;;;;;;22.87;13.40;;;2.80;77.90;;;;;;5052675;28;20473;-57
2023/02/09 09:19:54;;;;;;;24.33;12.93;;;2.80;77.20;;;;;;5053026;28;20445;-58
2023/02/09 09:22:21;;;;;;;22.70;12.50;;;2.80;76.10;;;;;;5052497;28;20953;-58
2023/02/09 09:24:48;;;;;;;17.20;11.87;;;2.80;76.00;;;;;;5054035;28;20611;-58
2023/02/09 09:27:15;;;;;;;20.13;11.67;;;2.90;76.50;;;;;;5056355;28;20450;-58
2023/02/09 09:29:42;;;;;;;22.40;13.03;;;2.90;76.60;;;;;;5056220;28;20453;-58
2023/02/09 09:32:13;;;;;;;17.97;12.50;;;3.00;76.40;;;;;;5056325;28;20480;-57
2023/02/09 09:34:40;;;;;;;18.10;11.73;;;3.10;75.50;;;;;;5056265;28;20840;-58
2023/02/09 09:37:07;;;;;;;18.90;11.97;;;3.10;75.30;;;;;;5056132;28;20512;-58
2023/02/09 09:39:34;;;;;;;22.70;13.10;;;3.20;75.70;;;;;;5056036;28;20973;-58
2023/02/09 09:42:01;;;;;;;21.80;13.23;;;3.20;74.70;;;;;;5056064;28;20438;-57
2023/02/09 09:44:32;;;;;;;19.00;12.13;;;3.20;74.10;;;;;;5055828;28;20473;-57
2023/02/09 09:47:07;;;;;;;20.80;12.53;;;3.30;74.10;;;;;;5055568;28;20920;-58
2023/02/09 09:49:36;;;;;;;20.10;13.03;;;3.40;73.80;;;;;;5055950;28;20434;-58
2023/02/09 09:52:08;;;;;;;25.03;13.93;;;3.40;73.50;;;;;;5055799;28;20457;-57
2023/02/09 09:54:36;;;;;;;32.73;24.23;;;3.50;73.80;;;;;;5055673;28;20461;-56
2023/02/09 09:57:03;;;;;;;25.97;16.70;;;3.70;73.40;;;;;;5055688;28;20473;-57
2023/02/09 09:59:37;;;;;;;26.17;15.70;;;3.80;72.70;;;;;;5055653;28;20457;-57
2023/02/09 10:02:18;;;;;;;22.03;12.97;;;3.90;72.10;;;;;;5055670;28;20446;-57
2023/02/09 10:04:47;;;;;;;21.03;12.80;;;4.00;71.40;;;;;;5055614;28;20473;-57
2023/02/09 10:07:17;;;;;;;21.73;12.50;;;4.10;70.50;;;;;;5055663;28;20477;-57
2023/02/09 10:09:49;;;;;;;17.33;11.57;;;4.20;70.40;;;;;;5055572;28;20508;-56
2023/02/09 10:12:31;;;;;;;25.10;11.87;;;4.30;69.30;;;;;;5055609;28;20437;-57
2023/02/09 10:14:58;;;;;;;15.80;11.17;;;4.30;68.30;;;;;;5055591;28;20481;-56
2023/02/09 10:17:25;;;;;;;20.43;10.87;;;4.40;68.30;;;;;;5055302;28;20477;-57
2023/02/09 10:20:06;;;;;;;17.67;12.60;;;4.50;67.40;;;;;;5055338;28;20450;-57
2023/02/09 10:22:33;;;;;;;16.37;11.13;;;4.50;68.00;;;;;;5055249;28;20805;-56
2023/02/09 10:25:02;;;;;;;18.20;11.20;;;4.50;66.50;;;;;;5055185;28;20489;-57
2023/02/09 10:27:31;;;;;;;17.40;11.93;;;4.60;67.60;;;;;;5055197;28;20445;-57
2023/02/09 10:30:17;;;;;;;16.67;11.57;;;4.70;66.90;;;;;;5054782;28;20460;-56
2023/02/09 10:32:44;;;;;;;18.83;11.50;;;4.80;65.90;;;;;;5055128;28;20484;-57
2023/02/09 10:35:27;;;;;;;22.90;11.07;;;4.90;64.20;;;;;;5055077;28;20470;-57
2023/02/09 10:38:00;;;;;;;22.33;11.30;;;5.00;64.30;;;;;;5054881;28;20481;-57
2023/02/09 10:40:28;;;;;;;18.70;11.20;;;5.20;63.30;;;;;;5054926;28;21016;-56
2023/02/09 10:42:58;;;;;;;17.53;10.87;;;5.30;62.70;;;;;;5054791;28;20485;-57
2023/02/09 10:45:27;;;;;;;15.60;10.77;;;5.50;61.90;;;;;;5054671;28;20469;-57
2023/02/09 10:47:59;;;;;;;17.23;10.87;;;5.70;60.10;;;;;;5054596;28;20453;-57
2023/02/09 10:50:27;;;;;;;22.40;11.50;;;5.80;59.10;;;;;;5054754;28;20477;-57
2023/02/09 10:52:58;;;;;;;18.23;11.63;;;6.00;58.10;;;;;;5054421;28;20445;-57
2023/02/09 10:55:32;;;;;;;14.57;10.60;;;6.10;57.50;;;;;;5054650;28;20496;-57
2023/02/09 10:58:22;;;;;;;19.83;11.40;;;6.30;57.20;;;;;;5054559;28;20472;-57
2023/02/09 11:00:52;;;;;;;14.83;10.97;;;6.60;56.80;;;;;;5054245;28;20815;-57
2023/02/09 11:03:20;;;;;;;16.60;9.73;;;6.80;55.60;;;;;;5054519;28;20433;-57
2023/02/09 11:05:58;;;;;;;16.07;11.07;;;6.90;55.50;;;;;;5054079;28;20465;-58
2023/02/09 11:08:33;;;;;;;13.63;10.30;;;7.10;55.20;;;;;;5054474;28;20437;-58
2023/02/09 11:11:05;;;;;;;15.63;10.93;;;7.20;54.60;;;;;;5054611;28;20431;-57
2023/02/09 11:13:33;;;;;;;14.93;10.70;;;7.40;54.50;;;;;;5054005;28;20779;-57
2023/02/09 11:16:25;;;;;;;17.17;11.20;;;7.50;53.60;;;;;;5054152;28;20457;-58
2023/02/09 11:18:59;;;;;;;17.57;10.60;;;7.70;53.50;;;;;;5054465;28;20466;-58
2023/02/09 11:21:38;;;;;;;19.10;10.77;;;7.90;52.10;;;;;;5054232;28;20430;-58
2023/02/09 11:24:12;;;;;;;15.17;10.10;;;8.00;51.40;;;;;;5054131;28;20469;-57
2023/02/09 11:26:45;;;;;;;18.17;10.70;;;8.20;50.90;;;;;;5054191;28;20438;-57
2023/02/09 11:29:19;;;;;;;14.67;10.50;;;8.40;50.40;;;;;;5054132;28;20434;-58
2023/02/09 11:32:02;;;;;;;13.80;9.80;;;8.70;49.50;;;;;;5054073;28;20422;-58
2023/02/09 11:34:43;;;;;;;15.10;11.10;;;9.10;48.10;;;;;;5053809;28;20476;-58
2023/02/09 11:37:27;;;;;;;13.17;9.87;;;9.40;47.20;;;;;;5053888;28;20480;-58
2023/02/09 11:39:59;;;;;;;18.57;11.00;;;9.70;46.20;;;;;;5054058;28;20449;-58
2023/02/09 11:42:44;;;;;;;14.90;10.50;;;10.00;45.20;;;;;;5053899;28;20449;-58
2023/02/09 11:45:14;;;;;;;14.17;11.00;;;10.40;45.60;;;;;;5054071;28;20469;-58
2023/02/09 11:47:49;;;;;;;15.83;10.40;;;10.80;43.60;;;;;;5053362;28;20468;-58
2023/02/09 11:50:23;;;;;;;19.03;11.13;;;11.00;42.50;;;;;;5054034;28;20456;-57
2023/02/09 11:52:56;;;;;;;14.50;10.47;;;11.10;42.00;;;;;;5053775;28;20441;-57
2023/02/09 11:55:28;;;;;;;13.93;11.07;;;11.30;41.50;;;;;;5053859;28;20484;-58
2023/02/09 11:58:05;;;;;;;14.33;10.63;;;11.50;42.00;;;;;;5053941;28;20465;-58
2023/02/09 12:00:40;;;;;;;13.80;10.73;;;11.60;41.00;;;;;;5054076;28;20436;-58
2023/02/09 12:03:11;;;;;;;18.23;11.43;;;12.00;41.30;;;;;;5053837;28;20436;-57
2023/02/09 12:05:38;;;;;;;13.10;10.23;;;12.20;40.00;;;;;;5054031;28;20966;-59
2023/02/09 12:08:29;;;;;;;14.67;10.80;;;12.50;38.90;;;;;;5054486;28;20453;-59
2023/02/09 12:11:13;;;;;;;13.50;10.70;;;12.70;38.90;;;;;;5050938;28;20476;-59
2023/02/09 12:13:55;;;;;;;13.97;10.90;;;13.10;38.70;;;;;;5054097;28;20441;-58
2023/02/09 12:16:24;;;;;;;14.40;10.03;;;13.40;37.30;;;;;;5055003;28;20437;-59
2023/02/09 12:18:54;;;;;;;13.53;10.10;;;13.60;36.30;;;;;;5054690;28;20464;-59
2023/02/09 12:21:31;;;;;;;12.93;10.77;;;13.70;36.30;;;;;;5054797;28;20434;-58
2023/02/09 12:23:59;;;;;;;15.63;10.60;;;13.80;36.60;;;;;;5055385;28;20530;-59
2023/02/09 12:26:36;;;;;;;12.90;10.73;;;13.80;35.40;;;;;;5055258;28;20445;-59
2023/02/09 12:29:24;;;;;;;15.33;10.67;;;13.90;36.40;;;;;;5056003;28;20449;-58
2023/02/09 12:32:23;;;;;;;15.30;10.23;;;14.10;35.90;;;;;;5054091;28;20438;-58
2023/02/09 12:34:51;;;;;;;16.10;10.43;;;14.30;36.40;;;;;;5053388;28;20849;-58
2023/02/09 12:37:23;;;;;;;15.43;10.20;;;14.40;34.50;;;;;;5053169;28;20506;-58
2023/02/09 12:40:24;;;;;;;15.53;11.07;;;14.20;34.70;;;;;;5053198;28;20937;-58
2023/02/09 12:43:27;;;;;;;13.03;9.93;;;14.10;35.00;;;;;;5020942;28;20441;-59
2023/02/09 12:46:14;;;;;;;14.70;9.43;;;14.00;35.40;;;;;;5052719;28;20984;-58
2023/02/09 12:49:08;;;;;;;14.13;9.20;;;13.50;34.30;;;;;;5052977;28;20466;-58
2023/02/09 12:52:05;;;;;;;12.33;9.97;;;13.20;34.90;;;;;;5053055;28;20476;-58
2023/02/09 12:54:38;;;;;;;11.90;9.60;;;12.70;35.30;;;;;;5036508;28;20564;-58
2023/02/09 12:57:50;;;;;;;13.00;10.03;;;12.60;36.00;;;;;;5053720;28;20470;-58
2023/02/09 13:00:41;;;;;;;11.57;9.13;;;12.70;36.60;;;;;;4993465;28;20429;-58